Terminal Aerodrome Forecast
Issued by NWS

Home | Current Version | Previous Version | Text Only | Print | Product List | Glossary On
Versions: 1 2 3 4 5 6 7 8 9 10 11 12 13 14 15
000
FTUS45 KPSR 192339 CCA
TAFIWA
TAF COR
KIWA 192339Z 2000/2024 14008KT P6SM -SHRA SCT030 BKN070
      TEMPO 2000/2004 SHRA BKN030 OVC050
     FM200600 15007KT P6SM -SHRA FEW040 SCT070 BKN100
     FM201200 12006KT P6SM SCT080 BKN120
     FM202200 19006KT P6SM -SHRA BKN050 OVC100
      AMD LTD TO CLD VIS AND WIND 2003/2013=

USA.gov is the U.S. government's official web portal to all federal, state and local government web resources and services.